Time;durP1;ratioP1;P1;durP2;ratioP2;P2;SDS_P1;SDS_P2;PMS_P1;PMS_P2;Temp;Humidity;BMP_temperature;BMP_pressure;BME280_temperature;BME280_humidity;BME280_pressure;Samples;Min_cycle;Max_cycle;Signal;HPM_P1;HPM_P2
2022/07/28 00:01:57;;;;;;;;;;;11.20;99.90;;;;;;5125416;27;20284;-56
2022/07/28 00:04:37;;;;;;;;;;;11.20;99.90;;;;;;5146566;27;19925;-56
2022/07/28 00:07:17;;;;;;;;;;;11.30;99.90;;;;;;5145515;27;19915;-56
2022/07/28 00:09:57;;;;;;;;;;;11.30;99.90;;;;;;5105461;27;19946;-56
2022/07/28 00:12:37;;;;;;;;;;;11.30;99.90;;;;;;5125755;27;19953;-56
2022/07/28 00:15:18;;;;;;;;;;;11.20;99.90;;;;;;5125256;27;19930;-57
2022/07/28 00:17:59;;;;;;;;;;;11.10;99.90;;;;;;5145255;27;19917;-56
2022/07/28 00:20:39;;;;;;;;;;;11.00;99.90;;;;;;5125659;27;20335;-56
2022/07/28 00:23:19;;;;;;;;;;;10.90;99.90;;;;;;5146578;27;19917;-57
2022/07/28 00:25:59;;;;;;;;;;;10.90;99.90;;;;;;5123318;27;19912;-56
2022/07/28 00:28:39;;;;;;;;;;;10.90;99.90;;;;;;5125374;27;19919;-56
2022/07/28 00:31:19;;;;;;;;;;;11.00;99.90;;;;;;5125650;27;19916;-56
2022/07/28 00:33:58;;;;;;;;;;;11.00;99.90;;;;;;5146463;27;19911;-56
2022/07/28 00:36:38;;;;;;;;;;;11.00;99.90;;;;;;5097605;27;19913;-55
2022/07/28 00:39:18;;;;;;;;;;;11.00;99.90;;;;;;5125684;27;19916;-56
2022/07/28 00:41:58;;;;;;;;;;;10.90;99.90;;;;;;5125800;27;19919;-57
2022/07/28 00:44:40;;;;;;;;;;;10.90;99.90;;;;;;5106016;27;19981;-55
2022/07/28 00:47:21;;;;;;;;;;;11.00;99.90;;;;;;5124490;27;19919;-57
2022/07/28 00:50:01;;;;;;;;;;;11.00;99.90;;;;;;5125689;27;19912;-56
2022/07/28 00:52:40;;;;;;;;;;;11.00;99.90;;;;;;5104982;27;20429;-56
2022/07/28 00:55:21;;;;;;;;;;;11.00;99.90;;;;;;5125570;27;19912;-56
2022/07/28 00:58:02;;;;;;;;;;;10.90;99.90;;;;;;5124689;27;19918;-56
2022/07/28 01:00:41;;;;;;;;;;;10.80;99.90;;;;;;5126086;27;20160;-55
2022/07/28 01:03:21;;;;;;;;;;;10.70;99.90;;;;;;5105456;27;19930;-56
2022/07/28 01:06:05;;;;;;;;;;;10.70;99.90;;;;;;5102125;27;19926;-56
2022/07/28 01:09:00;;;;;;;;;;;10.70;99.90;;;;;;5105108;27;20316;-56
2022/07/28 01:11:45;;;;;;;;;;;10.60;99.90;;;;;;5125509;27;20373;-56
2022/07/28 01:14:30;;;;;;;;;;;10.50;99.90;;;;;;5125859;27;19956;-56
2022/07/28 01:17:14;;;;;;;;;;;10.60;99.90;;;;;;5124499;27;20308;-56
2022/07/28 01:20:02;;;;;;;;;;;10.50;99.90;;;;;;5125951;27;20304;-56
2022/07/28 01:22:45;;;;;;;;;;;10.40;99.90;;;;;;5081534;28;19916;-56
2022/07/28 01:25:34;;;;;;;;;;;10.30;99.90;;;;;;5123167;27;20330;-56
2022/07/28 01:28:32;;;;;;;;;;;10.20;99.90;;;;;;5104744;27;19938;-56
2022/07/28 01:31:16;;;;;;;;;;;10.10;99.90;;;;;;5105422;27;19926;-56
2022/07/28 01:33:57;;;;;;;;;;;10.10;99.90;;;;;;5125587;27;20288;-56
2022/07/28 01:36:41;;;;;;;;;;;10.10;99.90;;;;;;5117856;27;19912;-56
2022/07/28 01:39:25;;;;;;;;;;;10.10;99.90;;;;;;5125650;27;19937;-57
2022/07/28 01:42:06;;;;;;;;;;;10.10;99.90;;;;;;5125969;27;19918;-56
2022/07/28 01:44:48;;;;;;;;;;;10.00;99.90;;;;;;5125325;27;19926;-56
2022/07/28 01:47:29;;;;;;;;;;;10.00;99.90;;;;;;5124649;27;20308;-56
2022/07/28 01:50:11;;;;;;;;;;;10.00;99.90;;;;;;5104110;27;19918;-55
2022/07/28 01:52:51;;;;;;;;;;;10.00;99.90;;;;;;5126043;27;19912;-56
2022/07/28 01:55:31;;;;;;;;;;;9.90;99.90;;;;;;5137440;27;19918;-56
2022/07/28 01:58:11;;;;;;;;;;;9.90;99.90;;;;;;5104231;27;19949;-55
2022/07/28 02:00:53;;;;;;;;;;;9.90;99.90;;;;;;5125783;27;20292;-56
2022/07/28 02:03:34;;;;;;;;;;;9.80;99.90;;;;;;5120057;27;19927;-56
2022/07/28 02:06:16;;;;;;;;;;;9.70;99.90;;;;;;5098712;27;20416;-56
2022/07/28 02:08:57;;;;;;;;;;;9.60;99.90;;;;;;5119447;27;19918;-55
2022/07/28 02:11:41;;;;;;;;;;;9.60;99.90;;;;;;5104136;27;19930;-56
2022/07/28 02:14:23;;;;;;;;;;;9.60;99.90;;;;;;5125735;27;19918;-56
2022/07/28 02:17:06;;;;;;;;;;;9.60;99.90;;;;;;5113700;27;20396;-56
2022/07/28 02:19:48;;;;;;;;;;;9.60;99.90;;;;;;5125489;27;20280;-56
2022/07/28 02:22:29;;;;;;;;;;;9.50;99.90;;;;;;5105129;27;19949;-56
2022/07/28 02:25:10;;;;;;;;;;;9.40;99.90;;;;;;5125198;27;20400;-56
2022/07/28 02:27:53;;;;;;;;;;;9.40;99.90;;;;;;5124430;27;19912;-56
2022/07/28 02:30:37;;;;;;;;;;;9.50;99.90;;;;;;5104951;27;19969;-55
2022/07/28 02:33:20;;;;;;;;;;;9.50;99.90;;;;;;5104945;27;19919;-56
2022/07/28 02:36:04;;;;;;;;;;;9.50;99.90;;;;;;5102661;27;19946;-57
2022/07/28 02:38:46;;;;;;;;;;;9.60;99.90;;;;;;5126018;27;19912;-55
2022/07/28 02:41:28;;;;;;;;;;;9.60;99.90;;;;;;5105873;27;19915;-56
2022/07/28 02:44:12;;;;;;;;;;;9.70;99.90;;;;;;5105270;27;20427;-56
2022/07/28 02:46:54;;;;;;;;;;;9.60;99.90;;;;;;5124646;27;19931;-56
2022/07/28 02:49:36;;;;;;;;;;;9.50;99.90;;;;;;5125914;27;19922;-56
2022/07/28 02:52:18;;;;;;;;;;;9.40;99.90;;;;;;5105258;27;19916;-56
2022/07/28 02:54:58;;;;;;;;;;;9.30;99.90;;;;;;5104798;27;19912;-56
2022/07/28 02:57:39;;;;;;;;;;;9.40;99.90;;;;;;5104195;27;19916;-56
2022/07/28 03:00:20;;;;;;;;;;;9.40;99.90;;;;;;5105255;27;19912;-56
2022/07/28 03:03:00;;;;;;;;;;;9.30;99.90;;;;;;5105290;27;19912;-57
2022/07/28 03:05:41;;;;;;;;;;;9.20;99.90;;;;;;5104673;27;20343;-57
2022/07/28 03:08:20;;;;;;;;;;;9.20;99.90;;;;;;5104654;27;19969;-56
2022/07/28 03:11:10;;;;;;;;;;;9.20;99.90;;;;;;5126239;27;20387;-56
2022/07/28 03:13:50;;;;;;;;;;;9.20;99.90;;;;;;5126169;27;19912;-56
2022/07/28 03:16:30;;;;;;;;;;;9.20;99.90;;;;;;5099399;27;20316;-55
2022/07/28 03:19:10;;;;;;;;;;;9.20;99.90;;;;;;5104988;27;19927;-55
2022/07/28 03:21:52;;;;;;;;;;;9.10;99.90;;;;;;5125978;27;19916;-54
2022/07/28 03:24:35;;;;;;;;;;;9.20;99.90;;;;;;5123247;27;19922;-55
2022/07/28 03:27:20;;;;;;;;;;;9.20;99.90;;;;;;5124199;27;20300;-55
2022/07/28 03:30:02;;;;;;;;;;;9.20;99.90;;;;;;5125700;27;19918;-55
2022/07/28 03:32:45;;;;;;;;;;;9.20;99.90;;;;;;5127899;27;19922;-55
2022/07/28 03:35:27;;;;;;;;;;;9.30;99.90;;;;;;5125449;27;19912;-55
2022/07/28 03:38:09;;;;;;;;;;;9.30;99.90;;;;;;5104501;27;19912;-56
2022/07/28 03:40:49;;;;;;;;;;;9.50;99.90;;;;;;5105322;27;19918;-55
2022/07/28 03:43:31;;;;;;;;;;;9.60;99.90;;;;;;5125898;27;19918;-55
2022/07/28 03:46:12;;;;;;;;;;;9.70;99.90;;;;;;5080990;28;19917;-54
2022/07/28 03:48:52;;;;;;;;;;;9.80;99.90;;;;;;5125751;27;19911;-55
2022/07/28 03:51:32;;;;;;;;;;;10.00;99.90;;;;;;5105317;27;19946;-55
2022/07/28 03:54:11;;;;;;;;;;;10.20;99.90;;;;;;5105140;27;20369;-55
2022/07/28 03:56:51;;;;;;;;;;;10.50;99.90;;;;;;5104510;27;20407;-54
2022/07/28 03:59:31;;;;;;;;;;;10.70;99.90;;;;;;5125633;27;19918;-55
2022/07/28 04:02:11;;;;;;;;;;;10.80;99.90;;;;;;5109774;27;19945;-55
2022/07/28 04:04:50;;;;;;;;;;;11.00;99.90;;;;;;5125930;27;19912;-55
2022/07/28 04:07:30;;;;;;;;;;;11.10;99.90;;;;;;5103990;27;19919;-55
2022/07/28 04:10:12;;;;;;;;;;;11.20;99.90;;;;;;5104935;27;20289;-55
2022/07/28 04:12:53;;;;;;;;;;;11.30;99.90;;;;;;5125116;27;19916;-55
2022/07/28 04:15:33;;;;;;;;;;;11.40;99.90;;;;;;5125493;27;20415;-55
2022/07/28 04:18:13;;;;;;;;;;;11.40;99.90;;;;;;5125061;27;19918;-55
2022/07/28 04:20:54;;;;;;;;;;;11.40;99.90;;;;;;5125659;27;19916;-54
2022/07/28 04:23:34;;;;;;;;;;;11.50;99.90;;;;;;5105935;27;19912;-54
2022/07/28 04:26:16;;;;;;;;;;;11.50;99.90;;;;;;5104775;27;19934;-55
2022/07/28 04:28:55;;;;;;;;;;;11.60;99.90;;;;;;5105136;27;20311;-55
2022/07/28 04:31:35;;;;;;;;;;;11.60;99.90;;;;;;5155308;27;20303;-55
2022/07/28 04:34:15;;;;;;;;;;;11.60;99.90;;;;;;5105144;27;19916;-55
2022/07/28 04:36:55;;;;;;;;;;;11.60;99.90;;;;;;5115902;27;19926;-55
2022/07/28 04:39:35;;;;;;;;;;;11.60;99.90;;;;;;5125840;27;19916;-54
2022/07/28 04:42:15;;;;;;;;;;;11.70;99.90;;;;;;5125469;27;19923;-55
2022/07/28 04:44:54;;;;;;;;;;;11.80;99.90;;;;;;5124864;27;19937;-55
2022/07/28 04:47:35;;;;;;;;;;;12.00;99.90;;;;;;5104002;27;19912;-55
2022/07/28 04:50:17;;;;;;;;;;;12.20;99.90;;;;;;5125409;27;19912;-55
2022/07/28 04:52:59;;;;;;;;;;;12.40;99.90;;;;;;5105368;27;19919;-54
2022/07/28 04:55:38;;;;;;;;;;;12.90;99.90;;;;;;5125403;27;19918;-55
2022/07/28 04:58:18;;;;;;;;;;;13.60;99.90;;;;;;5126179;27;20262;-54
2022/07/28 05:00:58;;;;;;;;;;;14.50;99.90;;;;;;5125675;27;20369;-54
2022/07/28 05:03:38;;;;;;;;;;;15.50;99.90;;;;;;5125914;27;20178;-55
2022/07/28 05:06:18;;;;;;;;;;;16.30;99.90;;;;;;5120673;27;19923;-55
2022/07/28 05:08:58;;;;;;;;;;;16.30;99.90;;;;;;5104819;27;19920;-55
2022/07/28 05:11:37;;;;;;;;;;;16.40;99.90;;;;;;5126067;27;19912;-55
2022/07/28 05:14:17;;;;;;;;;;;16.70;99.90;;;;;;5105093;27;19930;-55
2022/07/28 05:16:57;;;;;;;;;;;17.10;99.90;;;;;;5162998;27;19911;-55
2022/07/28 05:19:37;;;;;;;;;;;17.50;99.90;;;;;;5105375;27;19953;-55
2022/07/28 05:22:17;;;;;;;;;;;18.10;99.90;;;;;;5126204;27;19918;-55
2022/07/28 05:24:56;;;;;;;;;;;18.40;99.90;;;;;;5105249;27;20351;-55
2022/07/28 05:27:36;;;;;;;;;;;18.60;99.90;;;;;;5104135;27;20435;-55
2022/07/28 05:30:17;;;;;;;;;;;18.60;99.90;;;;;;5144592;27;19915;-54
2022/07/28 05:33:00;;;;;;;;;;;18.20;99.90;;;;;;5098916;27;19965;-55
2022/07/28 05:35:41;;;;;;;;;;;17.70;99.90;;;;;;5124882;27;19918;-54
2022/07/28 05:38:21;;;;;;;;;;;17.40;99.90;;;;;;5100646;27;20315;-55
2022/07/28 05:41:00;;;;;;;;;;;17.30;99.90;;;;;;5124710;27;20282;-55
2022/07/28 05:43:40;;;;;;;;;;;17.20;99.90;;;;;;5125344;27;20384;-54
2022/07/28 05:46:20;;;;;;;;;;;17.30;99.90;;;;;;5099797;27;19931;-55
2022/07/28 05:49:00;;;;;;;;;;;17.50;99.90;;;;;;5124732;27;19911;-55
2022/07/28 05:51:40;;;;;;;;;;;17.70;99.90;;;;;;5105676;27;19919;-54
2022/07/28 05:54:19;;;;;;;;;;;17.90;99.90;;;;;;5146667;27;20355;-54
2022/07/28 05:56:59;;;;;;;;;;;18.10;99.90;;;;;;5103579;27;20391;-54
2022/07/28 05:59:39;;;;;;;;;;;18.40;99.90;;;;;;5161566;27;19918;-54
2022/07/28 06:02:19;;;;;;;;;;;18.60;99.90;;;;;;5141673;27;19916;-55
2022/07/28 06:04:59;;;;;;;;;;;18.70;99.90;;;;;;5083952;28;19912;-54
2022/07/28 06:07:39;;;;;;;;;;;19.00;99.90;;;;;;5124825;27;19922;-55
2022/07/28 06:10:20;;;;;;;;;;;19.10;99.90;;;;;;5123566;27;20302;-55
2022/07/28 06:13:04;;;;;;;;;;;18.90;98.20;;;;;;5118875;27;19916;-54
2022/07/28 06:15:45;;;;;;;;;;;18.90;94.90;;;;;;5123723;27;19911;-55
2022/07/28 06:18:26;;;;;;;;;;;18.60;96.70;;;;;;5124618;27;19922;-54
2022/07/28 06:21:06;;;;;;;;;;;18.40;98.50;;;;;;5124977;27;19918;-55
2022/07/28 06:23:46;;;;;;;;;;;18.40;99.50;;;;;;5125408;27;19918;-55
2022/07/28 06:26:25;;;;;;;;;;;18.50;97.00;;;;;;5104023;27;19926;-55
2022/07/28 06:29:05;;;;;;;;;;;18.70;95.90;;;;;;5125034;27;19919;-56
2022/07/28 06:31:45;;;;;;;;;;;18.70;94.80;;;;;;5125378;27;19922;-54
2022/07/28 06:34:25;;;;;;;;;;;18.80;96.40;;;;;;5125238;27;19912;-55
2022/07/28 06:37:05;;;;;;;;;;;19.00;95.40;;;;;;5113524;27;19916;-55
2022/07/28 06:39:45;;;;;;;;;;;19.10;95.80;;;;;;5105002;27;20308;-54
2022/07/28 06:42:24;;;;;;;;;;;19.40;93.80;;;;;;5105678;27;19912;-56
2022/07/28 06:45:05;;;;;;;;;;;19.60;92.80;;;;;;5104548;27;19926;-56
2022/07/28 06:47:46;;;;;;;;;;;19.70;86.30;;;;;;5125147;27;19918;-56
2022/07/28 06:50:26;;;;;;;;;;;19.60;87.60;;;;;;5125877;27;19934;-56
2022/07/28 06:53:05;;;;;;;;;;;19.60;88.60;;;;;;5125352;27;20395;-56
2022/07/28 06:55:45;;;;;;;;;;;19.60;88.50;;;;;;5124871;27;19922;-56
2022/07/28 06:58:25;;;;;;;;;;;19.50;85.90;;;;;;5125019;27;19934;-56
2022/07/28 07:01:06;;;;;;;;;;;19.60;89.10;;;;;;5125394;27;19915;-58
2022/07/28 07:03:46;;;;;;;;;;;19.70;87.70;;;;;;5109070;27;19912;-56
2022/07/28 07:06:26;;;;;;;;;;;19.70;86.90;;;;;;5118929;27;19918;-56
2022/07/28 07:09:06;;;;;;;;;;;19.70;86.50;;;;;;5125831;27;19918;-56
2022/07/28 07:11:46;;;;;;;;;;;19.60;91.20;;;;;;5125951;27;19924;-56
2022/07/28 07:14:26;;;;;;;;;;;19.90;85.20;;;;;;5125483;27;19920;-57
2022/07/28 07:17:05;;;;;;;;;;;19.90;85.50;;;;;;5113223;27;19938;-57
2022/07/28 07:19:45;;;;;;;;;;;20.00;84.70;;;;;;5126226;27;20416;-56
2022/07/28 07:22:25;;;;;;;;;;;20.00;81.80;;;;;;5105644;27;19912;-56
2022/07/28 07:25:09;;;;;;;;;;;20.10;82.20;;;;;;5125975;27;19918;-56
2022/07/28 07:27:49;;;;;;;;;;;20.10;81.90;;;;;;5124989;27;20206;-56
2022/07/28 07:30:29;;;;;;;;;;;20.20;78.80;;;;;;5125722;27;20292;-56
2022/07/28 07:33:09;;;;;;;;;;;20.20;77.20;;;;;;5125300;27;19912;-56
2022/07/28 07:35:49;;;;;;;;;;;20.20;79.00;;;;;;5125155;27;19916;-57
2022/07/28 07:38:29;;;;;;;;;;;20.30;77.80;;;;;;5125744;27;19926;-56
2022/07/28 07:41:09;;;;;;;;;;;20.30;73.90;;;;;;5105032;27;19965;-56
2022/07/28 07:43:48;;;;;;;;;;;20.30;76.30;;;;;;5125734;27;19945;-56
2022/07/28 07:46:28;;;;;;;;;;;20.30;72.00;;;;;;5099506;27;19927;-56
2022/07/28 07:49:08;;;;;;;;;;;20.30;70.60;;;;;;5125392;27;19918;-56
2022/07/28 07:51:48;;;;;;;;;;;20.20;72.00;;;;;;5105398;27;19930;-56
2022/07/28 07:54:28;;;;;;;;;;;20.30;71.50;;;;;;5125923;27;19916;-56
2022/07/28 07:57:08;;;;;;;;;;;20.40;70.00;;;;;;5103944;27;19973;-56
2022/07/28 07:59:47;;;;;;;;;;;20.50;71.50;;;;;;5125403;27;20312;-56
2022/07/28 08:02:27;;;;;;;;;;;20.70;68.00;;;;;;5109653;27;19920;-56
2022/07/28 08:05:08;;;;;;;;;;;20.80;70.40;;;;;;5120871;27;19934;-56
2022/07/28 08:07:49;;;;;;;;;;;20.80;67.00;;;;;;5105227;27;19961;-56
2022/07/28 08:10:28;;;;;;;;;;;20.90;65.50;;;;;;5126277;27;20067;-56
2022/07/28 08:13:08;;;;;;;;;;;20.80;65.30;;;;;;5119230;27;20400;-57
2022/07/28 08:15:48;;;;;;;;;;;20.80;66.00;;;;;;5104174;27;19920;-56
2022/07/28 08:18:28;;;;;;;;;;;20.80;66.90;;;;;;5104748;27;19919;-56
2022/07/28 08:21:08;;;;;;;;;;;20.90;66.40;;;;;;5104560;27;19920;-56
2022/07/28 08:23:47;;;;;;;;;;;20.90;65.80;;;;;;5125952;27;19957;-56
2022/07/28 08:26:28;;;;;;;;;;;21.00;65.80;;;;;;5104549;27;19973;-57
2022/07/28 08:29:09;;;;;;;;;;;21.30;66.50;;;;;;5125575;27;19916;-56
2022/07/28 08:31:49;;;;;;;;;;;21.50;65.50;;;;;;5129491;27;19917;-57
2022/07/28 08:34:28;;;;;;;;;;;21.70;62.80;;;;;;5125446;27;20337;-57
2022/07/28 08:37:08;;;;;;;;;;;21.50;62.80;;;;;;5105832;27;20308;-56
2022/07/28 08:39:48;;;;;;;;;;;21.40;63.60;;;;;;5126011;27;19918;-56
2022/07/28 08:42:34;;;;;;;;;;;21.40;62.30;;;;;;5124671;27;19926;-56
2022/07/28 08:45:14;;;;;;;;;;;21.50;62.70;;;;;;5105521;27;20411;-56
2022/07/28 08:47:56;;;;;;;;;;;21.70;62.00;;;;;;5124945;27;19912;-56
2022/07/28 08:50:36;;;;;;;;;;;21.80;58.30;;;;;;5126013;27;19953;-56
2022/07/28 08:53:18;;;;;;;;;;;21.70;59.40;;;;;;5105725;27;19926;-56
2022/07/28 08:56:02;;;;;;;;;;;21.70;59.60;;;;;;5125134;27;19915;-56
2022/07/28 08:58:43;;;;;;;;;;;21.70;57.80;;;;;;5084921;28;19917;-56
2022/07/28 09:01:23;;;;;;;;;;;21.80;56.50;;;;;;5125832;27;19912;-56
2022/07/28 09:04:03;;;;;;;;;;;21.80;57.50;;;;;;5104996;27;19954;-56
2022/07/28 09:06:43;;;;;;;;;;;21.90;56.40;;;;;;5097077;27;19922;-56
2022/07/28 09:09:23;;;;;;;;;;;22.00;56.40;;;;;;5125339;27;19919;-56
2022/07/28 09:12:05;;;;;;;;;;;22.20;55.20;;;;;;5125639;27;19953;-57
2022/07/28 09:14:45;;;;;;;;;;;22.20;56.40;;;;;;5125844;27;19912;-56
2022/07/28 09:17:25;;;;;;;;;;;22.30;53.90;;;;;;5125439;27;20388;-54
2022/07/28 09:20:07;;;;;;;;;;;22.30;53.20;;;;;;5105323;27;19932;-54
2022/07/28 09:22:58;;;;;;;;;;;22.40;53.70;;;;;;5126010;27;19918;-55
2022/07/28 09:25:39;;;;;;;;;;;22.40;53.20;;;;;;5125785;27;19912;-55
2022/07/28 09:28:19;;;;;;;;;;;22.40;51.50;;;;;;5104739;27;19912;-54
2022/07/28 09:31:06;;;;;;;;;;;22.50;51.60;;;;;;5125335;27;19931;-55
2022/07/28 09:33:57;;;;;;;;;;;22.60;51.40;;;;;;5089664;27;19919;-54
2022/07/28 09:36:39;;;;;;;;;;;22.80;51.70;;;;;;5124652;27;19915;-54
2022/07/28 09:39:30;;;;;;;;;;;23.00;49.00;;;;;;5125638;27;19918;-55
2022/07/28 09:42:10;;;;;;;;;;;23.10;49.80;;;;;;5126239;27;19945;-54
2022/07/28 09:45:03;;;;;;;;;;;23.20;49.40;;;;;;5105343;27;20327;-55
2022/07/28 09:47:44;;;;;;;;;;;23.40;49.00;;;;;;5104604;27;19927;-55
2022/07/28 09:50:28;;;;;;;;;;;23.60;45.60;;;;;;5105187;27;19945;-54
2022/07/28 09:53:25;;;;;;;;;;;23.60;45.80;;;;;;5105264;27;20315;-54
2022/07/28 09:56:04;;;;;;;;;;;23.60;45.00;;;;;;5125238;27;19922;-55
2022/07/28 09:58:53;;;;;;;;;;;23.50;47.00;;;;;;5125690;27;19934;-55
2022/07/28 10:01:34;;;;;;;;;;;23.60;48.70;;;;;;5084943;27;20199;-55
2022/07/28 10:04:13;;;;;;;;;;;23.70;47.30;;;;;;5125777;27;19918;-55
2022/07/28 10:07:00;;;;;;;;;;;23.70;46.70;;;;;;5124920;27;19945;-55
2022/07/28 10:09:41;;;;;;;;;;;23.90;47.80;;;;;;5125976;27;19912;-54
2022/07/28 10:12:22;;;;;;;;;;;24.00;45.10;;;;;;5147139;27;20311;-54
2022/07/28 10:16:09;;;;;;;;;;;24.00;45.70;;;;;;5125660;27;19918;-55
2022/07/28 10:18:12;;;;;;;;;;;24.00;46.70;;;;;;5104271;27;19919;-54
2022/07/28 10:20:52;;;;;;;;;;;24.20;44.80;;;;;;5125532;27;20274;-54
2022/07/28 10:23:33;;;;;;;;;;;24.10;42.80;;;;;;5126477;27;19926;-55
2022/07/28 10:26:14;;;;;;;;;;;23.90;44.80;;;;;;5125032;27;20129;-54
2022/07/28 10:28:55;;;;;;;;;;;24.00;44.00;;;;;;5125649;27;20024;-54
2022/07/28 10:31:40;;;;;;;;;;;24.10;43.80;;;;;;5126312;27;19918;-55
2022/07/28 10:34:22;;;;;;;;;;;24.20;43.20;;;;;;5106063;27;20400;-55
2022/07/28 10:37:03;;;;;;;;;;;24.30;43.00;;;;;;5106499;27;19916;-55
2022/07/28 10:39:48;;;;;;;;;;;24.40;44.30;;;;;;5125819;27;19911;-55
2022/07/28 10:42:29;;;;;;;;;;;24.50;42.60;;;;;;5147067;27;19926;-55
2022/07/28 10:45:10;;;;;;;;;;;24.60;43.00;;;;;;5124803;27;20320;-55
2022/07/28 10:47:51;;;;;;;;;;;24.60;42.60;;;;;;5106620;27;19916;-55
2022/07/28 10:50:31;;;;;;;;;;;24.70;42.30;;;;;;5105691;27;19912;-54
2022/07/28 10:53:17;;;;;;;;;;;24.70;42.20;;;;;;5124895;27;19916;-55
2022/07/28 10:56:02;;;;;;;;;;;24.70;41.90;;;;;;5103765;27;19920;-54
2022/07/28 10:58:46;;;;;;;;;;;24.90;42.50;;;;;;5105546;27;20443;-55
2022/07/28 11:01:35;;;;;;;;;;;24.90;41.10;;;;;;5105881;27;19926;-54
2022/07/28 11:04:40;;;;;;;;;;;24.90;41.20;;;;;;5125858;27;19912;-54
2022/07/28 11:07:22;;;;;;;;;;;24.70;40.70;;;;;;5123909;27;19916;-55
2022/07/28 11:10:16;;;;;;;;;;;24.70;42.20;;;;;;5125708;27;19912;-54
2022/07/28 11:12:57;;;;;;;;;;;25.00;40.80;;;;;;5105171;27;20419;-54
2022/07/28 11:15:38;;;;;;;;;;;25.00;41.00;;;;;;5125922;27;19911;-55
2022/07/28 11:18:19;;;;;;;;;;;25.20;43.10;;;;;;5125234;27;19922;-55
2022/07/28 11:21:06;;;;;;;;;;;25.40;40.80;;;;;;5104783;27;19930;-55
2022/07/28 11:23:53;;;;;;;;;;;25.50;39.70;;;;;;5105513;27;19919;-55
2022/07/28 11:26:36;;;;;;;;;;;25.50;40.20;;;;;;5117101;27;19939;-55
2022/07/28 11:29:22;;;;;;;;;;;25.60;39.40;;;;;;5124314;27;19920;-55
2022/07/28 11:32:03;;;;;;;;;;;25.50;40.50;;;;;;5124494;27;19918;-55
2022/07/28 11:35:01;;;;;;;;;;;25.50;40.30;;;;;;5125061;27;20403;-55
2022/07/28 11:37:59;;;;;;;;;;;25.50;39.50;;;;;;5107725;27;19918;-55
2022/07/28 11:40:40;;;;;;;;;;;25.30;40.50;;;;;;5125186;27;20198;-54
2022/07/28 11:43:28;;;;;;;;;;;25.50;39.40;;;;;;5126265;27;19912;-55
2022/07/28 11:46:34;;;;;;;;;;;25.50;39.90;;;;;;5124280;27;19912;-54
2022/07/28 11:49:23;;;;;;;;;;;25.60;39.60;;;;;;5124282;27;19919;-55
2022/07/28 11:52:07;;;;;;;;;;;25.50;38.90;;;;;;5124269;27;19922;-54
2022/07/28 11:54:53;;;;;;;;;;;25.50;39.40;;;;;;5104454;27;20297;-54
2022/07/28 11:57:39;;;;;;;;;;;25.60;39.60;;;;;;5109230;27;19926;-55
2022/07/28 12:00:21;;;;;;;;;;;25.60;39.30;;;;;;5124511;27;19912;-54
2022/07/28 12:03:04;;;;;;;;;;;25.60;39.30;;;;;;5147669;27;19911;-55
2022/07/28 12:05:56;;;;;;;;;;;25.70;39.20;;;;;;5094368;27;19931;-55
2022/07/28 12:11:31;;;;;;;;;;;25.70;39.30;;;;;;5104671;27;19945;-55
2022/07/28 12:14:12;;;;;;;;;;;25.80;39.30;;;;;;5125338;27;19916;-55
2022/07/28 12:16:53;;;;;;;;;;;26.00;39.40;;;;;;5115140;27;19922;-55
2022/07/28 12:19:33;;;;;;;;;;;26.10;38.40;;;;;;5125736;27;19930;-55
2022/07/28 12:22:13;;;;;;;;;;;26.00;39.00;;;;;;5125092;27;19922;-55
2022/07/28 12:24:56;;;;;;;;;;;26.10;38.70;;;;;;5105444;27;20304;-54
2022/07/28 12:27:36;;;;;;;;;;;26.30;38.60;;;;;;5094927;27;20290;-54
2022/07/28 12:30:20;;;;;;;;;;;26.30;38.00;;;;;;5104042;27;20335;-55
2022/07/28 12:33:15;;;;;;;;;;;26.30;38.30;;;;;;5127269;27;19912;-54
2022/07/28 12:35:56;;;;;;;;;;;26.30;38.10;;;;;;5123891;27;20194;-54
2022/07/28 12:38:36;;;;;;;;;;;26.40;36.90;;;;;;5124233;27;19915;-55
2022/07/28 12:41:16;;;;;;;;;;;26.30;38.20;;;;;;5104098;27;19954;-54
2022/07/28 12:43:56;;;;;;;;;;;26.40;40.00;;;;;;5125002;27;19922;-55
2022/07/28 12:46:36;;;;;;;;;;;26.60;37.80;;;;;;5123997;27;20088;-55
2022/07/28 12:49:21;;;;;;;;;;;26.50;37.80;;;;;;5124059;27;19942;-55
2022/07/28 12:52:15;;;;;;;;;;;26.50;38.00;;;;;;5124619;27;19918;-54
2022/07/28 12:54:56;;;;;;;;;;;26.70;36.70;;;;;;5124668;27;20559;-55
2022/07/28 12:57:42;;;;;;;;;;;26.90;36.20;;;;;;5104829;27;19916;-54
2022/07/28 13:00:23;;;;;;;;;;;26.70;37.00;;;;;;5126255;27;20262;-55
2022/07/28 13:03:19;;;;;;;;;;;26.60;37.10;;;;;;5125637;27;19916;-55
2022/07/28 13:06:09;;;;;;;;;;;26.50;37.10;;;;;;5123692;27;19918;-55
2022/07/28 13:08:48;;;;;;;;;;;26.40;36.00;;;;;;5125278;27;19934;-55
2022/07/28 13:11:30;;;;;;;;;;;26.50;37.00;;;;;;5126042;27;20369;-54
2022/07/28 13:14:11;;;;;;;;;;;26.80;35.60;;;;;;5125940;27;19911;-55
2022/07/28 13:16:58;;;;;;;;;;;27.30;35.80;;;;;;5116350;27;19922;-54
2022/07/28 13:19:38;;;;;;;;;;;27.70;34.20;;;;;;5126249;27;19922;-55
2022/07/28 13:22:27;;;;;;;;;;;28.00;33.50;;;;;;5105068;27;20312;-55
2022/07/28 13:25:07;;;;;;;;;;;28.20;33.40;;;;;;5105199;27;19919;-54
2022/07/28 13:27:48;;;;;;;;;;;28.30;33.70;;;;;;5124826;27;20412;-55
2022/07/28 13:30:28;;;;;;;;;;;28.60;32.40;;;;;;5126333;27;19925;-55
2022/07/28 13:33:08;;;;;;;;;;;28.60;32.80;;;;;;5105377;27;19923;-55
2022/07/28 13:35:49;;;;;;;;;;;28.40;32.60;;;;;;5084693;28;20321;-55
2022/07/28 13:38:29;;;;;;;;;;;28.20;32.70;;;;;;5125665;27;20378;-55
2022/07/28 13:41:10;;;;;;;;;;;28.10;32.50;;;;;;5105375;27;19962;-55
2022/07/28 13:43:50;;;;;;;;;;;28.20;32.70;;;;;;5125813;27;19922;-55
2022/07/28 13:46:30;;;;;;;;;;;28.30;33.60;;;;;;5124642;27;20300;-55
2022/07/28 13:49:10;;;;;;;;;;;28.20;33.10;;;;;;5125231;27;19912;-57
2022/07/28 13:51:50;;;;;;;;;;;28.40;31.70;;;;;;5125011;27;19927;-56
2022/07/28 13:54:29;;;;;;;;;;;28.60;31.00;;;;;;5125461;27;19922;-56
2022/07/28 13:57:12;;;;;;;;;;;28.70;30.60;;;;;;5113167;27;19923;-55
2022/07/28 13:59:52;;;;;;;;;;;29.10;29.90;;;;;;5126223;27;19911;-54
2022/07/28 14:02:32;;;;;;;;;;;29.40;30.10;;;;;;5125948;27;19912;-55
2022/07/28 14:05:13;;;;;;;;;;;29.70;29.30;;;;;;5125914;27;20303;-54
2022/07/28 14:07:53;;;;;;;;;;;30.00;28.80;;;;;;5099884;27;19931;-55
2022/07/28 14:10:34;;;;;;;;;;;30.40;29.20;;;;;;5104359;27;19957;-54
2022/07/28 14:13:15;;;;;;;;;;;30.80;29.70;;;;;;5119309;27;19934;-54
2022/07/28 14:15:54;;;;;;;;;;;31.00;28.30;;;;;;5125365;27;19919;-54
2022/07/28 14:18:34;;;;;;;;;;;30.90;27.30;;;;;;5098663;27;19920;-54
2022/07/28 14:21:14;;;;;;;;;;;30.90;27.80;;;;;;5098691;27;20327;-55
2022/07/28 14:23:55;;;;;;;;;;;30.90;27.90;;;;;;5109257;27;20286;-55
2022/07/28 14:26:35;;;;;;;;;;;30.20;28.00;;;;;;5119295;27;19915;-55
2022/07/28 14:29:15;;;;;;;;;;;30.00;28.90;;;;;;5122244;27;19951;-55
2022/07/28 14:31:57;;;;;;;;;;;29.90;28.50;;;;;;5122047;27;19919;-55
2022/07/28 14:34:38;;;;;;;;;;;30.10;27.60;;;;;;5124543;27;19918;-55
2022/07/28 14:37:18;;;;;;;;;;;30.10;27.60;;;;;;5109452;27;20407;-54
2022/07/28 14:39:58;;;;;;;;;;;30.40;27.80;;;;;;5123905;27;20455;-55
2022/07/28 14:42:38;;;;;;;;;;;30.60;27.20;;;;;;5104125;27;19912;-55
2022/07/28 14:45:17;;;;;;;;;;;30.80;26.70;;;;;;5084592;28;20199;-54
2022/07/28 14:47:57;;;;;;;;;;;31.40;26.80;;;;;;5125258;27;19916;-55
2022/07/28 14:50:37;;;;;;;;;;;32.10;26.20;;;;;;5126195;27;20202;-54
2022/07/28 14:53:20;;;;;;;;;;;31.90;26.30;;;;;;5125908;27;19969;-54
2022/07/28 14:56:00;;;;;;;;;;;32.00;25.60;;;;;;5124377;27;20391;-55
2022/07/28 14:58:40;;;;;;;;;;;32.10;24.80;;;;;;5121695;27;20304;-55
2022/07/28 15:01:20;;;;;;;;;;;31.90;25.60;;;;;;5126555;27;19920;-55
2022/07/28 15:03:59;;;;;;;;;;;32.00;25.20;;;;;;5124590;27;19926;-56
2022/07/28 15:06:39;;;;;;;;;;;32.00;25.10;;;;;;5116716;27;19916;-54
2022/07/28 15:09:19;;;;;;;;;;;31.90;24.90;;;;;;5122511;27;19923;-54
2022/07/28 15:11:59;;;;;;;;;;;31.80;26.00;;;;;;5103645;27;20584;-54
2022/07/28 15:14:39;;;;;;;;;;;31.60;25.40;;;;;;5124736;27;19911;-55
2022/07/28 15:17:19;;;;;;;;;;;31.40;26.10;;;;;;5116382;27;19915;-56
2022/07/28 15:20:04;;;;;;;;;;;31.50;26.40;;;;;;5118875;27;19922;-56
2022/07/28 15:22:45;;;;;;;;;;;31.80;25.40;;;;;;5095935;27;19935;-55
2022/07/28 15:25:25;;;;;;;;;;;31.70;25.50;;;;;;5100580;27;19934;-56
2022/07/28 15:28:04;;;;;;;;;;;31.60;24.80;;;;;;5102206;27;19926;-56
2022/07/28 15:30:50;;;;;;;;;;;31.40;25.80;;;;;;5126170;27;19915;-56
2022/07/28 15:33:30;;;;;;;;;;;31.50;25.50;;;;;;5125698;27;20127;-56
2022/07/28 15:36:10;;;;;;;;;;;31.40;24.80;;;;;;5120724;27;19930;-56
2022/07/28 15:38:50;;;;;;;;;;;31.50;25.30;;;;;;5105585;27;19918;-55
2022/07/28 15:41:30;;;;;;;;;;;31.50;24.80;;;;;;5122504;27;20293;-55
2022/07/28 15:44:10;;;;;;;;;;;31.00;25.80;;;;;;5126475;27;20399;-56
2022/07/28 15:46:50;;;;;;;;;;;30.20;26.00;;;;;;5084643;28;19912;-55